sensor_id;sensor_type;location;lat;lon;timestamp;pressure;altitude;pressure_sealevel;temperature;humidity
72024;BME280;59889;50.700;5.440;2023-08-08T00:02:15;100095.47;;;23.39;30.19
72024;BME280;59889;50.700;5.440;2023-08-08T00:04:40;100094.45;;;23.36;30.23
72024;BME280;59889;50.700;5.440;2023-08-08T00:07:05;100093.26;;;23.41;30.17
72024;BME280;59889;50.700;5.440;2023-08-08T00:09:30;100094.23;;;23.32;30.26
72024;BME280;59889;50.700;5.440;2023-08-08T00:11:55;100094.13;;;23.28;30.31
72024;BME280;59889;50.700;5.440;2023-08-08T00:14:20;100095.11;;;23.58;30.24
72024;BME280;59889;50.700;5.440;2023-08-08T00:16:45;100093.87;;;23.29;30.30
72024;BME280;59889;50.700;5.440;2023-08-08T00:19:10;100093.72;;;23.37;30.21
72024;BME280;59889;50.700;5.440;2023-08-08T00:21:35;100091.25;;;23.31;30.27
72024;BME280;59889;50.700;5.440;2023-08-08T00:24:00;100089.90;;;23.60;30.20
72024;BME280;59889;50.700;5.440;2023-08-08T00:26:25;100085.91;;;23.31;30.26
72024;BME280;59889;50.700;5.440;2023-08-08T00:28:50;100085.67;;;23.33;30.24
72024;BME280;59889;50.700;5.440;2023-08-08T00:31:15;100081.28;;;23.22;30.35
72024;BME280;59889;50.700;5.440;2023-08-08T00:33:40;100077.17;;;23.39;30.18
72024;BME280;59889;50.700;5.440;2023-08-08T00:36:05;100075.64;;;23.38;30.20
72024;BME280;59889;50.700;5.440;2023-08-08T00:38:30;100081.37;;;23.26;30.30
72024;BME280;59889;50.700;5.440;2023-08-08T00:40:55;100080.02;;;23.59;30.22
72024;BME280;59889;50.700;5.440;2023-08-08T00:43:20;100083.33;;;23.42;30.14
72024;BME280;59889;50.700;5.440;2023-08-08T00:45:45;100085.78;;;23.29;30.25
72024;BME280;59889;50.700;5.440;2023-08-08T00:48:11;100083.66;;;23.36;30.20
72024;BME280;59889;50.700;5.440;2023-08-08T00:50:36;100081.78;;;23.31;30.23
72024;BME280;59889;50.700;5.440;2023-08-08T00:53:00;100077.44;;;23.36;30.19
72024;BME280;59889;50.700;5.440;2023-08-08T00:55:26;100073.77;;;23.40;30.15
72024;BME280;59889;50.700;5.440;2023-08-08T00:57:50;100069.65;;;23.37;30.17
72024;BME280;59889;50.700;5.440;2023-08-08T01:00:16;100070.22;;;23.28;30.25
72024;BME280;59889;50.700;5.440;2023-08-08T01:02:40;100069.15;;;23.33;30.22
72024;BME280;59889;50.700;5.440;2023-08-08T01:05:06;100071.57;;;23.29;30.26
72024;BME280;59889;50.700;5.440;2023-08-08T01:07:35;100071.07;;;23.25;30.29
72024;BME280;59889;50.700;5.440;2023-08-08T01:10:00;100064.45;;;23.29;30.25
72024;BME280;59889;50.700;5.440;2023-08-08T01:12:21;100060.50;;;23.35;30.19
72024;BME280;59889;50.700;5.440;2023-08-08T01:14:46;100055.35;;;23.30;30.22
72024;BME280;59889;50.700;5.440;2023-08-08T01:17:12;100056.55;;;23.34;30.20
72024;BME280;59889;50.700;5.440;2023-08-08T01:19:36;100054.74;;;23.19;30.33
72024;BME280;59889;50.700;5.440;2023-08-08T01:22:02;100050.58;;;23.24;30.30
72024;BME280;59889;50.700;5.440;2023-08-08T01:24:26;100053.40;;;23.23;30.30
72024;BME280;59889;50.700;5.440;2023-08-08T01:26:51;100055.30;;;23.27;30.26
72024;BME280;59889;50.700;5.440;2023-08-08T01:29:16;100055.38;;;23.23;30.29
72024;BME280;59889;50.700;5.440;2023-08-08T01:31:41;100057.19;;;23.36;30.16
72024;BME280;59889;50.700;5.440;2023-08-08T01:34:06;100056.52;;;23.32;30.20
72024;BME280;59889;50.700;5.440;2023-08-08T01:36:35;100053.00;;;23.69;30.31
72024;BME280;59889;50.700;5.440;2023-08-08T01:38:59;100047.16;;;23.24;30.28
72024;BME280;59889;50.700;5.440;2023-08-08T01:41:21;100044.65;;;23.17;30.34
72024;BME280;59889;50.700;5.440;2023-08-08T01:43:46;100039.99;;;23.11;30.39
72024;BME280;59889;50.700;5.440;2023-08-08T01:46:11;100037.71;;;23.29;30.23
72024;BME280;59889;50.700;5.440;2023-08-08T01:48:36;100040.25;;;23.29;30.21
72024;BME280;59889;50.700;5.440;2023-08-08T01:51:01;100035.28;;;23.27;30.25
72024;BME280;59889;50.700;5.440;2023-08-08T01:53:26;100034.13;;;23.42;30.32
72024;BME280;59889;50.700;5.440;2023-08-08T01:55:51;100032.19;;;23.24;30.27
72024;BME280;59889;50.700;5.440;2023-08-08T01:58:16;100035.08;;;23.23;30.27
72024;BME280;59889;50.700;5.440;2023-08-08T02:00:41;100041.42;;;23.14;30.35
72024;BME280;59889;50.700;5.440;2023-08-08T02:03:06;100041.15;;;23.29;30.21
72024;BME280;59889;50.700;5.440;2023-08-08T02:05:31;100037.93;;;23.29;30.21
72024;BME280;59889;50.700;5.440;2023-08-08T02:07:56;100038.31;;;23.26;30.23
72024;BME280;59889;50.700;5.440;2023-08-08T02:10:21;100036.54;;;23.22;30.27
72024;BME280;59889;50.700;5.440;2023-08-08T02:12:46;100036.26;;;23.18;30.31
72024;BME280;59889;50.700;5.440;2023-08-08T02:15:11;100039.54;;;23.25;30.24
72024;BME280;59889;50.700;5.440;2023-08-08T02:17:38;100041.29;;;23.19;30.31
72024;BME280;59889;50.700;5.440;2023-08-08T02:20:01;100044.28;;;23.25;30.24
72024;BME280;59889;50.700;5.440;2023-08-08T02:22:26;100042.06;;;23.40;30.33
72024;BME280;59889;50.700;5.440;2023-08-08T02:24:51;100040.31;;;23.18;30.30
72024;BME280;59889;50.700;5.440;2023-08-08T02:27:16;100038.96;;;23.26;30.23
72024;BME280;59889;50.700;5.440;2023-08-08T02:29:41;100036.76;;;23.17;30.32
72024;BME280;59889;50.700;5.440;2023-08-08T02:32:07;100034.95;;;23.23;30.24
72024;BME280;59889;50.700;5.440;2023-08-08T02:34:31;100032.96;;;23.24;30.24
72024;BME280;59889;50.700;5.440;2023-08-08T02:36:57;100028.08;;;23.12;30.35
72024;BME280;59889;50.700;5.440;2023-08-08T02:39:21;100024.86;;;23.25;30.22
72024;BME280;59889;50.700;5.440;2023-08-08T02:41:46;100023.50;;;23.12;30.35
72024;BME280;59889;50.700;5.440;2023-08-08T02:44:12;100018.79;;;23.18;30.29
72024;BME280;59889;50.700;5.440;2023-08-08T02:46:37;100019.02;;;23.13;30.34
72024;BME280;59889;50.700;5.440;2023-08-08T02:49:02;100019.29;;;23.06;30.41
72024;BME280;59889;50.700;5.440;2023-08-08T02:51:27;100018.05;;;23.12;30.33
72024;BME280;59889;50.700;5.440;2023-08-08T02:53:52;100017.90;;;23.09;30.38
72024;BME280;59889;50.700;5.440;2023-08-08T02:56:17;100019.76;;;23.16;30.31
72024;BME280;59889;50.700;5.440;2023-08-08T02:58:42;100015.99;;;23.12;30.32
72024;BME280;59889;50.700;5.440;2023-08-08T03:01:07;100014.54;;;23.34;30.37
72024;BME280;59889;50.700;5.440;2023-08-08T03:03:32;100013.78;;;23.33;30.36
72024;BME280;59889;50.700;5.440;2023-08-08T03:05:57;100008.49;;;23.17;30.27
72024;BME280;59889;50.700;5.440;2023-08-08T03:08:22;100005.64;;;23.74;30.18
72024;BME280;59889;50.700;5.440;2023-08-08T03:10:47;100001.00;;;23.01;30.44
72024;BME280;59889;50.700;5.440;2023-08-08T03:13:12;99996.72;;;23.28;30.42
72024;BME280;59889;50.700;5.440;2023-08-08T03:15:37;99993.90;;;23.11;30.34
72024;BME280;59889;50.700;5.440;2023-08-08T03:18:02;99997.32;;;23.12;30.34
72024;BME280;59889;50.700;5.440;2023-08-08T03:20:27;99994.49;;;23.09;30.37
72024;BME280;59889;50.700;5.440;2023-08-08T03:22:52;99995.24;;;23.20;30.24
72024;BME280;59889;50.700;5.440;2023-08-08T03:25:17;99994.36;;;23.14;30.31
72024;BME280;59889;50.700;5.440;2023-08-08T03:27:43;99996.46;;;23.37;30.31
72024;BME280;59889;50.700;5.440;2023-08-08T03:30:08;99994.71;;;23.04;30.40
72024;BME280;59889;50.700;5.440;2023-08-08T03:32:32;99998.36;;;23.16;30.26
72024;BME280;59889;50.700;5.440;2023-08-08T03:34:57;100000.68;;;23.16;30.26
72024;BME280;59889;50.700;5.440;2023-08-08T03:37:22;99998.95;;;23.03;30.41
72024;BME280;59889;50.700;5.440;2023-08-08T03:39:47;99996.27;;;23.01;30.44
72024;BME280;59889;50.700;5.440;2023-08-08T03:42:12;99994.20;;;23.10;30.31
72024;BME280;59889;50.700;5.440;2023-08-08T03:44:37;99993.89;;;23.36;30.30
72024;BME280;59889;50.700;5.440;2023-08-08T03:47:02;99995.33;;;23.12;30.31
72024;BME280;59889;50.700;5.440;2023-08-08T03:49:27;99998.32;;;23.18;30.24
72024;BME280;59889;50.700;5.440;2023-08-08T03:51:52;99998.21;;;23.31;30.36
72024;BME280;59889;50.700;5.440;2023-08-08T03:54:18;99999.44;;;23.10;30.30
72024;BME280;59889;50.700;5.440;2023-08-08T03:56:42;99995.17;;;23.43;30.23
72024;BME280;59889;50.700;5.440;2023-08-08T03:59:07;99995.13;;;23.10;30.32
72024;BME280;59889;50.700;5.440;2023-08-08T04:01:32;99994.85;;;23.13;30.30
72024;BME280;59889;50.700;5.440;2023-08-08T04:03:57;99996.21;;;23.06;30.37
72024;BME280;59889;50.700;5.440;2023-08-08T04:06:22;99997.36;;;23.13;30.30
72024;BME280;59889;50.700;5.440;2023-08-08T04:08:47;99993.19;;;23.02;30.39
72024;BME280;59889;50.700;5.440;2023-08-08T04:11:12;99989.16;;;23.02;30.39
72024;BME280;59889;50.700;5.440;2023-08-08T04:13:37;99989.04;;;23.10;30.31
72024;BME280;59889;50.700;5.440;2023-08-08T04:16:03;99985.39;;;23.11;30.30
72024;BME280;59889;50.700;5.440;2023-08-08T04:18:27;99983.18;;;23.28;30.35
72024;BME280;59889;50.700;5.440;2023-08-08T04:20:52;99982.51;;;23.09;30.31
72024;BME280;59889;50.700;5.440;2023-08-08T04:23:17;99979.62;;;23.08;30.32
72024;BME280;59889;50.700;5.440;2023-08-08T04:25:42;99976.50;;;23.03;30.37
72024;BME280;59889;50.700;5.440;2023-08-08T04:28:08;99974.79;;;22.90;30.48
72024;BME280;59889;50.700;5.440;2023-08-08T04:30:33;99974.87;;;23.31;30.34
72024;BME280;59889;50.700;5.440;2023-08-08T04:32:58;99977.42;;;23.07;30.32
72024;BME280;59889;50.700;5.440;2023-08-08T04:35:23;99981.06;;;23.62;30.25
72024;BME280;59889;50.700;5.440;2023-08-08T04:37:48;99984.78;;;23.04;30.34
72024;BME280;59889;50.700;5.440;2023-08-08T04:40:13;99980.88;;;23.13;30.25
72024;BME280;59889;50.700;5.440;2023-08-08T04:42:38;99980.46;;;23.23;30.38
72024;BME280;59889;50.700;5.440;2023-08-08T04:45:04;99982.21;;;23.08;30.30
72024;BME280;59889;50.700;5.440;2023-08-08T04:47:28;99980.90;;;23.12;30.25
72024;BME280;59889;50.700;5.440;2023-08-08T04:49:53;99982.67;;;23.36;30.26
72024;BME280;59889;50.700;5.440;2023-08-08T04:52:18;99982.99;;;23.28;30.33
72024;BME280;59889;50.700;5.440;2023-08-08T04:54:43;99979.44;;;23.09;30.30
72024;BME280;59889;50.700;5.440;2023-08-08T04:57:08;99980.20;;;23.15;30.22
72024;BME280;59889;50.700;5.440;2023-08-08T04:59:33;99975.15;;;22.90;30.46
72024;BME280;59889;50.700;5.440;2023-08-08T05:01:58;99974.49;;;23.14;30.22
72024;BME280;59889;50.700;5.440;2023-08-08T05:04:23;99974.97;;;23.16;30.20
72024;BME280;59889;50.700;5.440;2023-08-08T05:06:48;99974.83;;;23.07;30.31
72024;BME280;59889;50.700;5.440;2023-08-08T05:09:13;99974.55;;;22.94;30.40
72024;BME280;59889;50.700;5.440;2023-08-08T05:11:38;99973.86;;;23.10;30.27
72024;BME280;59889;50.700;5.440;2023-08-08T05:14:03;99974.49;;;23.02;30.34
72024;BME280;59889;50.700;5.440;2023-08-08T05:16:28;99976.12;;;22.97;30.40
72024;BME280;59889;50.700;5.440;2023-08-08T05:18:53;99974.15;;;23.03;30.35
72024;BME280;59889;50.700;5.440;2023-08-08T05:21:19;99974.07;;;23.14;30.22
72024;BME280;59889;50.700;5.440;2023-08-08T05:23:43;99975.02;;;23.11;30.25
72024;BME280;59889;50.700;5.440;2023-08-08T05:26:08;99974.29;;;23.17;30.45
72024;BME280;59889;50.700;5.440;2023-08-08T05:28:33;99975.16;;;23.60;30.25
72024;BME280;59889;50.700;5.440;2023-08-08T05:30:58;99976.20;;;23.11;30.28
72024;BME280;59889;50.700;5.440;2023-08-08T05:33:23;99979.63;;;23.14;30.23
72024;BME280;59889;50.700;5.440;2023-08-08T05:35:48;99981.62;;;22.97;30.41
72024;BME280;59889;50.700;5.440;2023-08-08T05:38:13;99982.62;;;23.30;30.31
72024;BME280;59889;50.700;5.440;2023-08-08T05:40:38;99988.35;;;23.08;30.30
72024;BME280;59889;50.700;5.440;2023-08-08T05:43:04;99987.90;;;23.06;30.31
72024;BME280;59889;50.700;5.440;2023-08-08T05:45:28;99989.00;;;23.23;30.38
72024;BME280;59889;50.700;5.440;2023-08-08T05:47:53;99991.92;;;22.95;30.41
72024;BME280;59889;50.700;5.440;2023-08-08T05:50:18;99994.69;;;23.11;30.27
72024;BME280;59889;50.700;5.440;2023-08-08T05:52:43;99993.62;;;23.32;30.30
72024;BME280;59889;50.700;5.440;2023-08-08T05:55:08;99992.94;;;23.37;30.25
72024;BME280;59889;50.700;5.440;2023-08-08T05:57:34;99995.39;;;23.13;30.26
72024;BME280;59889;50.700;5.440;2023-08-08T05:59:59;100000.94;;;23.29;30.34
72024;BME280;59889;50.700;5.440;2023-08-08T06:02:24;100001.54;;;23.11;30.28
72024;BME280;59889;50.700;5.440;2023-08-08T06:04:49;100000.90;;;23.55;30.31
72024;BME280;59889;50.700;5.440;2023-08-08T06:07:14;100002.86;;;23.05;30.35
72024;BME280;59889;50.700;5.440;2023-08-08T06:09:39;99999.84;;;23.38;30.26
72024;BME280;59889;50.700;5.440;2023-08-08T06:12:04;100001.84;;;23.07;30.30
72024;BME280;59889;50.700;5.440;2023-08-08T06:14:30;100000.11;;;23.09;30.30
72024;BME280;59889;50.700;5.440;2023-08-08T06:16:54;100001.58;;;23.19;30.21
72024;BME280;59889;50.700;5.440;2023-08-08T06:19:19;100002.58;;;23.42;30.20
72024;BME280;59889;50.700;5.440;2023-08-08T06:21:45;100001.70;;;23.14;30.24
72024;BME280;59889;50.700;5.440;2023-08-08T06:24:09;100004.06;;;23.19;30.21
72024;BME280;59889;50.700;5.440;2023-08-08T06:26:34;100002.34;;;23.09;30.31
72024;BME280;59889;50.700;5.440;2023-08-08T06:28:59;100002.12;;;23.19;30.22
72024;BME280;59889;50.700;5.440;2023-08-08T06:31:24;100003.02;;;23.20;30.20
72024;BME280;59889;50.700;5.440;2023-08-08T06:33:49;100002.38;;;23.24;30.17
72024;BME280;59889;50.700;5.440;2023-08-08T06:36:14;100004.95;;;23.03;30.12
72024;BME280;59889;50.700;5.440;2023-08-08T06:38:39;100008.02;;;23.39;30.26
72024;BME280;59889;50.700;5.440;2023-08-08T06:41:04;100005.06;;;23.47;30.17
72024;BME280;59889;50.700;5.440;2023-08-08T06:43:30;100007.42;;;23.23;30.19
72024;BME280;59889;50.700;5.440;2023-08-08T06:45:55;100004.55;;;23.22;30.19
72024;BME280;59889;50.700;5.440;2023-08-08T06:48:19;99998.87;;;23.23;30.19
72024;BME280;59889;50.700;5.440;2023-08-08T06:50:44;99998.85;;;23.26;30.14
72024;BME280;59889;50.700;5.440;2023-08-08T06:53:09;99999.23;;;23.54;30.11
72024;BME280;59889;50.700;5.440;2023-08-08T06:55:34;99996.02;;;23.25;30.17
72024;BME280;59889;50.700;5.440;2023-08-08T06:57:59;99995.84;;;23.26;30.18
72024;BME280;59889;50.700;5.440;2023-08-08T07:00:24;99999.12;;;23.53;30.16
72024;BME280;59889;50.700;5.440;2023-08-08T07:02:49;100000.04;;;23.41;30.28
72024;BME280;59889;50.700;5.440;2023-08-08T07:05:14;99999.96;;;23.18;30.27
72024;BME280;59889;50.700;5.440;2023-08-08T07:07:39;100002.56;;;23.29;30.18
72024;BME280;59889;50.700;5.440;2023-08-08T07:10:05;100003.38;;;23.47;30.25
72024;BME280;59889;50.700;5.440;2023-08-08T07:12:30;100000.61;;;23.56;30.16
72024;BME280;59889;50.700;5.440;2023-08-08T07:14:54;100004.02;;;23.26;30.22
72024;BME280;59889;50.700;5.440;2023-08-08T07:17:19;99998.22;;;23.52;30.20
72024;BME280;59889;50.700;5.440;2023-08-08T07:19:44;100000.28;;;23.25;30.26
72024;BME280;59889;50.700;5.440;2023-08-08T07:22:09;99997.61;;;23.27;30.24
72024;BME280;59889;50.700;5.440;2023-08-08T07:24:34;99998.82;;;23.29;30.21
72024;BME280;59889;50.700;5.440;2023-08-08T07:27:00;100000.25;;;23.38;30.12
72024;BME280;59889;50.700;5.440;2023-08-08T07:29:24;99999.91;;;23.23;30.30
72024;BME280;59889;50.700;5.440;2023-08-08T07:31:51;99996.89;;;23.33;30.19
72024;BME280;59889;50.700;5.440;2023-08-08T07:34:14;99998.40;;;23.19;30.09
72024;BME280;59889;50.700;5.440;2023-08-08T07:36:39;99997.90;;;23.65;30.11
72024;BME280;59889;50.700;5.440;2023-08-08T07:39:04;99994.57;;;23.49;30.05
72024;BME280;59889;50.700;5.440;2023-08-08T07:41:30;99992.10;;;23.47;30.11
72024;BME280;59889;50.700;5.440;2023-08-08T07:43:55;99991.31;;;23.36;30.20
72024;BME280;59889;50.700;5.440;2023-08-08T07:46:20;99989.44;;;23.35;30.22
72024;BME280;59889;50.700;5.440;2023-08-08T07:48:45;99989.69;;;23.40;30.19
72024;BME280;59889;50.700;5.440;2023-08-08T07:51:10;99986.41;;;23.66;29.90
72024;BME280;59889;50.700;5.440;2023-08-08T07:53:35;99987.35;;;23.70;30.15
72024;BME280;59889;50.700;5.440;2023-08-08T07:56:00;99984.23;;;23.66;30.17
72024;BME280;59889;50.700;5.440;2023-08-08T07:58:25;99984.84;;;23.66;29.91
72024;BME280;59889;50.700;5.440;2023-08-08T08:00:50;99984.30;;;23.36;30.23
72024;BME280;59889;50.700;5.440;2023-08-08T08:03:15;99988.37;;;23.26;30.10
72024;BME280;59889;50.700;5.440;2023-08-08T08:05:40;99991.29;;;23.46;30.15
72024;BME280;59889;50.700;5.440;2023-08-08T08:08:05;99988.22;;;23.45;30.16
72024;BME280;59889;50.700;5.440;2023-08-08T08:10:30;99994.44;;;23.41;30.20
72024;BME280;59889;50.700;5.440;2023-08-08T08:12:55;99993.01;;;23.49;30.14
72024;BME280;59889;50.700;5.440;2023-08-08T08:15:20;99991.28;;;23.14;30.27
72024;BME280;59889;50.700;5.440;2023-08-08T08:17:45;99989.17;;;23.37;30.01
72024;BME280;59889;50.700;5.440;2023-08-08T08:20:10;99987.30;;;23.45;30.21
72024;BME280;59889;50.700;5.440;2023-08-08T08:22:35;99993.84;;;23.40;30.24
72024;BME280;59889;50.700;5.440;2023-08-08T08:25:00;99998.55;;;23.33;30.31
72024;BME280;59889;50.700;5.440;2023-08-08T08:27:25;99996.52;;;23.12;30.29
72024;BME280;59889;50.700;5.440;2023-08-08T08:29:50;99994.44;;;23.47;30.20
72024;BME280;59889;50.700;5.440;2023-08-08T08:32:15;99991.77;;;23.16;30.26
72024;BME280;59889;50.700;5.440;2023-08-08T08:34:40;99991.05;;;23.30;30.39
72024;BME280;59889;50.700;5.440;2023-08-08T08:37:05;99988.60;;;23.52;30.14
72024;BME280;59889;50.700;5.440;2023-08-08T08:39:30;99985.85;;;23.48;30.19
72024;BME280;59889;50.700;5.440;2023-08-08T08:41:58;99986.84;;;23.47;30.23
72024;BME280;59889;50.700;5.440;2023-08-08T08:44:21;99985.91;;;23.67;30.24
72024;BME280;59889;50.700;5.440;2023-08-08T08:46:47;99981.55;;;23.45;30.26
72024;BME280;59889;50.700;5.440;2023-08-08T08:49:10;99983.55;;;23.38;30.33
72024;BME280;59889;50.700;5.440;2023-08-08T08:51:35;99986.48;;;23.50;30.21
72024;BME280;59889;50.700;5.440;2023-08-08T08:54:00;99991.25;;;23.47;30.24
72024;BME280;59889;50.700;5.440;2023-08-08T08:56:25;99994.33;;;23.46;30.25
72024;BME280;59889;50.700;5.440;2023-08-08T08:58:50;99995.74;;;23.54;30.19
72024;BME280;59889;50.700;5.440;2023-08-08T09:01:16;99998.44;;;23.23;30.50
72024;BME280;59889;50.700;5.440;2023-08-08T09:03:41;99995.93;;;23.42;30.31
72024;BME280;59889;50.700;5.440;2023-08-08T09:06:05;100003.25;;;23.59;30.13
72024;BME280;59889;50.700;5.440;2023-08-08T09:08:30;100002.05;;;23.45;30.27
72024;BME280;59889;50.700;5.440;2023-08-08T09:10:56;100001.34;;;23.52;30.19
72024;BME280;59889;50.700;5.440;2023-08-08T09:13:20;99999.00;;;23.39;30.33
72024;BME280;59889;50.700;5.440;2023-08-08T09:15:47;100002.14;;;23.38;30.36
72024;BME280;59889;50.700;5.440;2023-08-08T09:18:11;100006.35;;;23.38;30.36
72024;BME280;59889;50.700;5.440;2023-08-08T09:20:35;100006.95;;;23.35;30.40
72024;BME280;59889;50.700;5.440;2023-08-08T09:23:01;100004.11;;;23.40;30.33
72024;BME280;59889;50.700;5.440;2023-08-08T09:25:26;100000.71;;;23.75;30.24
72024;BME280;59889;50.700;5.440;2023-08-08T09:27:52;99994.20;;;23.47;30.28
72024;BME280;59889;50.700;5.440;2023-08-08T09:30:16;99993.22;;;23.42;30.31
72024;BME280;59889;50.700;5.440;2023-08-08T09:32:43;99992.41;;;23.42;30.34
72024;BME280;59889;50.700;5.440;2023-08-08T09:35:06;99985.43;;;23.46;30.28
72024;BME280;59889;50.700;5.440;2023-08-08T09:37:31;99992.43;;;23.52;30.22
72024;BME280;59889;50.700;5.440;2023-08-08T09:39:56;99987.16;;;23.45;30.32
72024;BME280;59889;50.700;5.440;2023-08-08T09:42:21;99980.26;;;23.64;30.08
72024;BME280;59889;50.700;5.440;2023-08-08T09:44:46;99985.00;;;23.43;30.31
72024;BME280;59889;50.700;5.440;2023-08-08T09:47:12;99982.88;;;23.68;30.31
72024;BME280;59889;50.700;5.440;2023-08-08T09:49:36;99983.94;;;23.39;30.36
72024;BME280;59889;50.700;5.440;2023-08-08T09:52:02;99986.98;;;23.47;30.29
72024;BME280;59889;50.700;5.440;2023-08-08T09:54:26;99989.10;;;23.51;30.24
72024;BME280;59889;50.700;5.440;2023-08-08T09:56:51;99993.98;;;23.48;30.29
72024;BME280;59889;50.700;5.440;2023-08-08T09:59:16;99991.74;;;23.49;30.26
72024;BME280;59889;50.700;5.440;2023-08-08T10:01:41;99990.23;;;23.47;30.28
72024;BME280;59889;50.700;5.440;2023-08-08T10:04:06;99993.12;;;23.52;30.22
72024;BME280;59889;50.700;5.440;2023-08-08T10:06:31;99994.01;;;23.47;30.27
72024;BME280;59889;50.700;5.440;2023-08-08T10:08:56;99997.55;;;23.50;30.24
72024;BME280;59889;50.700;5.440;2023-08-08T10:11:22;99997.23;;;23.36;30.38
72024;BME280;59889;50.700;5.440;2023-08-08T10:13:48;99996.32;;;23.31;30.43
72024;BME280;59889;50.700;5.440;2023-08-08T10:16:11;99998.50;;;23.50;30.24
72024;BME280;59889;50.700;5.440;2023-08-08T10:18:36;99996.29;;;23.46;30.28
72024;BME280;59889;50.700;5.440;2023-08-08T10:21:04;99996.76;;;23.44;30.31
72024;BME280;59889;50.700;5.440;2023-08-08T10:23:35;99994.25;;;23.40;30.34
72024;BME280;59889;50.700;5.440;2023-08-08T10:25:52;99994.45;;;23.48;30.25
72024;BME280;59889;50.700;5.440;2023-08-08T10:28:18;99993.75;;;23.55;30.17
72024;BME280;59889;50.700;5.440;2023-08-08T10:30:43;99991.06;;;23.40;30.34
72024;BME280;59889;50.700;5.440;2023-08-08T10:33:15;99994.41;;;23.39;30.35
72024;BME280;59889;50.700;5.440;2023-08-08T10:35:36;99996.18;;;23.43;30.30
72024;BME280;59889;50.700;5.440;2023-08-08T10:37:57;99996.33;;;23.55;30.15
72024;BME280;59889;50.700;5.440;2023-08-08T10:40:22;99996.86;;;23.83;30.11
72024;BME280;59889;50.700;5.440;2023-08-08T10:42:47;99995.29;;;23.46;30.24
72024;BME280;59889;50.700;5.440;2023-08-08T10:45:13;99990.00;;;23.53;30.16
72024;BME280;59889;50.700;5.440;2023-08-08T10:47:37;99994.47;;;23.43;30.28
72024;BME280;59889;50.700;5.440;2023-08-08T10:50:04;99992.57;;;23.35;30.34
72024;BME280;59889;50.700;5.440;2023-08-08T10:52:27;99994.11;;;23.56;30.12
72024;BME280;59889;50.700;5.440;2023-08-08T10:54:52;99989.94;;;23.49;30.20
72024;BME280;59889;50.700;5.440;2023-08-08T10:57:17;99988.10;;;23.45;30.23
72024;BME280;59889;50.700;5.440;2023-08-08T10:59:42;99989.38;;;23.46;30.21
72024;BME280;59889;50.700;5.440;2023-08-08T11:02:07;99989.17;;;23.49;30.17
72024;BME280;59889;50.700;5.440;2023-08-08T11:04:32;99990.58;;;23.43;30.24
72024;BME280;59889;50.700;5.440;2023-08-08T11:06:57;99988.04;;;23.48;30.17
72024;BME280;59889;50.700;5.440;2023-08-08T11:09:22;99987.35;;;23.32;30.34
72024;BME280;59889;50.700;5.440;2023-08-08T11:11:47;99985.82;;;23.33;30.33
72024;BME280;59889;50.700;5.440;2023-08-08T11:14:14;99984.85;;;23.18;30.22
72024;BME280;59889;50.700;5.440;2023-08-08T11:16:37;99981.18;;;23.43;30.22
72024;BME280;59889;50.700;5.440;2023-08-08T11:19:02;99978.66;;;23.52;30.11
72024;BME280;59889;50.700;5.440;2023-08-08T11:21:27;99971.13;;;23.37;30.27
72024;BME280;59889;50.700;5.440;2023-08-08T11:23:52;99973.18;;;23.66;30.21
72024;BME280;59889;50.700;5.440;2023-08-08T11:26:18;99975.01;;;23.46;30.17
72024;BME280;59889;50.700;5.440;2023-08-08T11:28:50;99973.20;;;23.41;30.21
72024;BME280;59889;50.700;5.440;2023-08-08T11:31:07;99968.94;;;23.44;30.17
72024;BME280;59889;50.700;5.440;2023-08-08T11:33:32;99968.73;;;23.37;30.26
72024;BME280;59889;50.700;5.440;2023-08-08T11:35:58;99965.73;;;23.43;30.17
72024;BME280;59889;50.700;5.440;2023-08-08T11:38:23;99966.19;;;23.33;30.29
72024;BME280;59889;50.700;5.440;2023-08-08T11:40:47;99964.85;;;23.32;30.29
72024;BME280;59889;50.700;5.440;2023-08-08T11:43:13;99964.43;;;23.29;30.30
72024;BME280;59889;50.700;5.440;2023-08-08T11:45:37;99960.51;;;23.38;30.19
72024;BME280;59889;50.700;5.440;2023-08-08T11:48:03;99961.60;;;23.39;30.20
72024;BME280;59889;50.700;5.440;2023-08-08T11:50:27;99963.21;;;23.68;30.14
72024;BME280;59889;50.700;5.440;2023-08-08T11:52:53;99962.90;;;23.48;30.10
72024;BME280;59889;50.700;5.440;2023-08-08T11:55:17;99964.06;;;23.48;30.09
72024;BME280;59889;50.700;5.440;2023-08-08T11:57:44;99965.20;;;23.39;30.17
72024;BME280;59889;50.700;5.440;2023-08-08T12:00:11;99962.67;;;23.46;30.10
72024;BME280;59889;50.700;5.440;2023-08-08T12:02:33;99962.91;;;23.50;30.07
72024;BME280;59889;50.700;5.440;2023-08-08T12:05:04;99961.67;;;23.45;30.10
72024;BME280;59889;50.700;5.440;2023-08-08T12:07:22;99960.90;;;23.40;30.16
72024;BME280;59889;50.700;5.440;2023-08-08T12:09:47;99958.10;;;23.49;30.06
72024;BME280;59889;50.700;5.440;2023-08-08T12:12:13;99957.49;;;23.69;30.11
72024;BME280;59889;50.700;5.440;2023-08-08T12:14:38;99956.96;;;23.42;30.15
72024;BME280;59889;50.700;5.440;2023-08-08T12:17:03;99952.88;;;23.47;30.08
72024;BME280;59889;50.700;5.440;2023-08-08T12:19:28;99958.19;;;23.45;30.09
72024;BME280;59889;50.700;5.440;2023-08-08T12:21:53;99956.90;;;23.48;30.07
72024;BME280;59889;50.700;5.440;2023-08-08T12:24:18;99961.79;;;23.40;30.16
72024;BME280;59889;50.700;5.440;2023-08-08T12:26:43;99967.47;;;23.40;30.17
72024;BME280;59889;50.700;5.440;2023-08-08T12:29:08;99965.06;;;23.38;30.17
72024;BME280;59889;50.700;5.440;2023-08-08T12:31:33;99966.26;;;23.39;30.19
72024;BME280;59889;50.700;5.440;2023-08-08T12:33:58;99963.43;;;23.37;30.19
72024;BME280;59889;50.700;5.440;2023-08-08T12:36:23;99965.82;;;23.42;30.15
72024;BME280;59889;50.700;5.440;2023-08-08T12:38:48;99966.07;;;23.31;30.27
72024;BME280;59889;50.700;5.440;2023-08-08T12:41:13;99962.27;;;23.35;30.24
72024;BME280;59889;50.700;5.440;2023-08-08T12:43:38;99961.93;;;23.32;30.28
72024;BME280;59889;50.700;5.440;2023-08-08T12:46:03;99960.41;;;23.15;30.20